»·PEaware :: WAT169 KSNA-KLAS

WAT169 :: KSNA-KLAS

FLIGHT INFORMATION

Flight Status: Arrived
Operator: Unknown
More flights by this operator :: More flights under this callsign
Pilot: Marty P. (27464)
Aircraft: BOMBARDIER BD-100 CHALLENGER 300
(CL30)
More flights by this aircraft type
Origin: KSNA John Wayne-Orange Co
United States
Destination: KLAS McCarran Intl
United States
More flights between these airports :: More routes between these airports
Route: FINZZ2 MISEN KEPEC6
File this flight plan on PilotEdge
Remarks:
Altitude:
(Current/Filed)
29,000ft
Speed:
(Current/Filed)
470kts
Departed: 20-Mar-20 09:32 PM
Arrived: 20-Mar-20 10:16 PM
Distance/Time
Traveled:
197nm/0:44
Distance/Time
To Go:
Arrived

Flight Plot

Page will automatically refresh every two minutes.

Flight plan parsing failed; only flown route is shown


Map Options




Map Legend


Flown Route
Filed Route
Departure Airport
Arrival Airport
Navaid (VOR, NDB)
Fix

Horizontal Profiles

Position Reports

Time Latitude Longitude Heading Altitude Ground
Speed
20-Mar-20 21:01 33.674978 -117.865011 118 63ft 0kts
20-Mar-20 21:02 33.674978 -117.865011 118 63ft 0kts
20-Mar-20 21:03 33.674978 -117.865011 118 63ft 0kts
20-Mar-20 21:04 33.674978 -117.865011 118 63ft 0kts
20-Mar-20 21:05 33.674978 -117.865011 118 63ft 0kts
20-Mar-20 21:06 33.674978 -117.865011 118 63ft 0kts
20-Mar-20 21:07 33.674978 -117.865011 118 63ft 0kts
20-Mar-20 21:08 33.674978 -117.865011 118 63ft 0kts
20-Mar-20 21:09 33.674978 -117.865011 118 63ft 0kts
20-Mar-20 21:10 33.674978 -117.865011 118 63ft 0kts
20-Mar-20 21:11 33.674978 -117.865011 118 63ft 0kts
20-Mar-20 21:12 33.674978 -117.865011 118 63ft 0kts
20-Mar-20 21:13 33.674978 -117.865011 118 63ft 0kts
20-Mar-20 21:14 33.674978 -117.865011 118 63ft 0kts
20-Mar-20 21:15 33.674978 -117.865011 118 63ft 0kts
20-Mar-20 21:16 33.674978 -117.865011 118 63ft 0kts
20-Mar-20 21:17 33.674978 -117.865011 118 63ft 0kts
20-Mar-20 21:18 33.674978 -117.865011 118 63ft 0kts
20-Mar-20 21:19 33.674978 -117.865011 118 63ft 0kts
20-Mar-20 21:20 33.674978 -117.865011 118 63ft 0kts
20-Mar-20 21:21 33.674978 -117.865011 118 63ft 0kts
20-Mar-20 21:22 33.674978 -117.865011 118 63ft 0kts
20-Mar-20 21:23 33.675121 -117.865332 118 63ft 2kts
20-Mar-20 21:24 33.675119 -117.865836 26 63ft 0kts
20-Mar-20 21:25 33.675119 -117.865835 26 63ft 0kts
20-Mar-20 21:26 33.676287 -117.865096 27 63ft 19kts
20-Mar-20 21:27 33.679783 -117.863177 308 63ft 0kts
20-Mar-20 21:28 33.680683 -117.863149 297 63ft 0kts
20-Mar-20 21:29 33.680683 -117.863149 297 63ft 0kts
20-Mar-20 21:30 33.681116 -117.864151 297 63ft 19kts
20-Mar-20 21:31 33.661095 -117.878029 207 671ft 183kts
20-Mar-20 21:32 33.610632 -117.901577 175 2966ft 205kts
20-Mar-20 21:33 33.555335 -117.919830 220 4794ft 248kts
20-Mar-20 21:34 33.501725 -117.979125 231 6014ft 271kts
20-Mar-20 21:35 33.525490 -118.058380 312 7628ft 296kts
20-Mar-20 21:36 33.584536 -118.120529 349 13046ft 307kts
20-Mar-20 21:37 33.672637 -118.081074 24 15738ft 390kts
20-Mar-20 21:38 33.773720 -118.022269 23 18927ft 426kts
20-Mar-20 21:39 33.880531 -117.959871 23 21861ft 448kts
20-Mar-20 21:40 33.984692 -117.873119 36 24373ft 471kts
20-Mar-20 21:41 34.089619 -117.774218 46 26415ft 493kts
20-Mar-20 21:42 34.176615 -117.648079 50 28148ft 510kts
20-Mar-20 21:43 34.267000 -117.513619 50 29190ft 538kts
20-Mar-20 21:44 34.363035 -117.370173 50 29188ft 548kts
20-Mar-20 21:45 34.457669 -117.228244 51 29178ft 547kts
20-Mar-20 21:46 34.553556 -117.084604 50 29182ft 546kts
20-Mar-20 21:47 34.651532 -116.941767 50 29185ft 551kts
20-Mar-20 21:48 34.750318 -116.797253 50 29187ft 552kts
20-Mar-20 21:49 34.849267 -116.653016 44 29168ft 552kts
20-Mar-20 21:50 34.966842 -116.535741 36 27506ft 531kts
20-Mar-20 21:51 35.078712 -116.426873 36 24209ft 490kts
20-Mar-20 21:52 35.173845 -116.314116 45 22811ft 475kts
20-Mar-20 21:53 35.264669 -116.200408 45 20574ft 459kts
20-Mar-20 21:54 35.352894 -116.089362 45 18339ft 444kts
20-Mar-20 21:55 35.437805 -115.982100 45 16283ft 426kts
20-Mar-20 21:56 35.519493 -115.878590 45 14468ft 408kts
20-Mar-20 21:57 35.596557 -115.780635 46 13011ft 377kts
20-Mar-20 21:58 35.664039 -115.694638 46 13001ft 320kts
20-Mar-20 21:59 35.728619 -115.630639 34 12767ft 281kts
20-Mar-20 22:00 35.797365 -115.572389 34 12323ft 331kts
20-Mar-20 22:01 35.875235 -115.506837 34 11847ft 343kts
20-Mar-20 22:02 35.952587 -115.441636 34 11135ft 321kts
20-Mar-20 22:03 36.019364 -115.382978 53 10968ft 265kts
20-Mar-20 22:04 36.024471 -115.292252 94 9189ft 277kts
20-Mar-20 22:05 36.018437 -115.201336 95 9007ft 263kts
20-Mar-20 22:06 36.012266 -115.109930 95 8021ft 268kts
20-Mar-20 22:07 36.007122 -115.027250 94 7730ft 233kts
20-Mar-20 22:08 36.002109 -114.943451 94 5990ft 222kts
20-Mar-20 22:10 36.029594 -114.890087 1 5014ft 210kts
20-Mar-20 22:11 36.071080 -114.928341 299 4988ft 195kts
20-Mar-20 22:12 36.073564 -114.990871 270 4353ft 171kts
20-Mar-20 22:13 36.073640 -115.044230 269 3499ft 138kts
20-Mar-20 22:14 36.073625 -115.087901 272 2816ft 117kts
20-Mar-20 22:15 36.073663 -115.130282 272 2195ft 125kts
20-Mar-20 22:16 36.074945 -115.146323 312 2188ft 13kts
20-Mar-20 22:17 36.077177 -115.146547 358 2188ft 0kts
20-Mar-20 22:18 36.078616 -115.147235 1 2188ft 11kts

Navigation Log

Ident Type
Flight plan parsing failed, navigation log unavailable